Time;durP1;ratioP1;P1;durP2;ratioP2;P2;SDS_P1;SDS_P2;PMS_P1;PMS_P2;Temp;Humidity;BMP_temperature;BMP_pressure;BME280_temperature;BME280_humidity;BME280_pressure;Samples;Min_cycle;Max_cycle;Signal;HPM_P1;HPM_P2
2021/06/01 00:00:42;;;;;;;39.55;21.63;;;15.20;99.90;;;;;;4882856;29;20057;-93
2021/06/01 00:03:19;;;;;;;43.85;21.73;;;15.10;99.90;;;;;;4866290;29;20056;-92
2021/06/01 00:06:01;;;;;;;41.67;20.13;;;15.00;99.90;;;;;;4875340;29;20056;-92
2021/06/01 00:08:29;;;;;;;32.40;18.50;;;15.00;99.90;;;;;;4883263;29;20033;-92
2021/06/01 00:11:12;;;;;;;37.67;19.38;;;15.00;99.90;;;;;;4873552;29;20116;-92
2021/06/01 00:13:50;;;;;;;33.80;20.20;;;15.40;99.90;;;;;;4864920;29;20036;-92
2021/06/01 00:16:19;;;;;;;36.15;18.95;;;15.00;99.90;;;;;;4879996;29;20037;-91
2021/06/01 00:18:52;;;;;;;32.22;18.40;;;14.90;99.90;;;;;;4873109;29;20028;-91
2021/06/01 00:21:36;;;;;;;36.20;18.35;;;14.70;99.90;;;;;;4884891;29;20056;-91
2021/06/01 00:24:15;;;;;;;37.55;19.65;;;15.10;99.90;;;;;;4870954;29;20057;-91
2021/06/01 00:26:44;;;;;;;38.80;19.67;;;14.80;99.90;;;;;;4862848;29;20060;-92
2021/06/01 00:29:12;;;;;;;37.95;19.90;;;15.30;99.90;;;;;;4870565;29;20040;-92
2021/06/01 00:31:42;;;;;;;35.67;17.55;;;14.70;99.90;;;;;;4953323;23;20032;-93
2021/06/01 00:34:14;;;;;;;30.25;15.50;;;14.70;99.90;;;;;;4895628;29;20061;-92
2021/06/01 00:36:43;;;;;;;30.15;16.23;;;14.60;99.90;;;;;;4868799;29;20056;-92
2021/06/01 00:39:27;;;;;;;29.85;16.13;;;14.60;99.90;;;;;;4896090;29;20062;-92
2021/06/01 00:41:57;;;;;;;30.90;15.55;;;14.50;99.90;;;;;;4905999;29;20060;-92
2021/06/01 00:44:26;;;;;;;27.33;15.98;;;14.50;99.90;;;;;;4911354;29;20048;-92
2021/06/01 00:46:59;;;;;;;29.30;15.45;;;14.40;99.90;;;;;;4885376;29;20048;-92
2021/06/01 00:49:28;;;;;;;34.35;17.38;;;14.30;99.90;;;;;;4875914;29;20080;-91
2021/06/01 00:52:15;;;;;;;28.77;17.30;;;14.30;99.90;;;;;;4891183;29;20052;-93
2021/06/01 00:54:56;;;;;;;31.60;16.77;;;14.30;99.90;;;;;;4901494;29;20059;-91
2021/06/01 00:57:26;;;;;;;30.48;17.27;;;14.20;99.90;;;;;;4872298;29;20070;-92
2021/06/01 00:59:59;;;;;;;36.55;17.55;;;13.10;99.90;;;;;;4907281;29;20480;-91
2021/06/01 01:02:29;;;;;;;;;;;14.10;99.90;;;;;;4881094;29;20063;-91
2021/06/01 01:05:12;;;;;;;34.55;15.73;;;14.10;99.90;;;;;;4885231;29;19929;-91
2021/06/01 01:07:57;;;;;;;33.08;17.20;;;14.60;99.90;;;;;;4900805;29;20216;-92
2021/06/01 01:10:31;;;;;;;41.90;16.27;;;14.00;99.90;;;;;;4916063;29;20507;-92
2021/06/01 01:13:04;;;;;;;27.67;15.70;;;14.00;99.90;;;;;;4886874;29;20620;-91
2021/06/01 01:15:36;;;;;;;38.00;16.35;;;14.00;99.90;;;;;;4909979;29;20048;-91
2021/06/01 01:18:21;;;;;;;33.33;16.35;;;14.00;99.90;;;;;;4903344;29;20055;-91
2021/06/01 01:21:21;;;;;;;30.40;16.92;;;14.00;99.90;;;;;;4914861;29;20063;-91
2021/06/01 01:24:02;;;;;;;33.10;16.88;;;13.90;99.90;;;;;;4901578;29;20062;-91
2021/06/01 01:26:57;;;;;;;31.65;16.05;;;13.80;99.90;;;;;;4906278;29;20048;-91
2021/06/01 01:29:37;;;;;;;42.20;17.98;;;13.80;99.90;;;;;;4905152;29;20066;-91
2021/06/01 01:32:46;;;;;;;30.77;16.40;;;13.80;99.90;;;;;;4880628;29;20070;-92
2021/06/01 01:35:17;;;;;;;31.88;17.48;;;13.70;99.90;;;;;;4881111;29;20044;-91
2021/06/01 01:37:47;;;;;;;;;;;13.80;99.90;;;;;;4892451;29;20072;-91
2021/06/01 01:40:22;;;;;;;30.30;17.80;;;13.70;99.90;;;;;;4863428;29;20331;-92
2021/06/01 01:42:53;;;;;;;32.33;16.88;;;13.70;99.90;;;;;;4844200;29;20048;-91
2021/06/01 01:45:29;;;;;;;34.67;16.98;;;13.70;99.90;;;;;;4879891;29;20056;-92
2021/06/01 01:50:51;;;;;;;36.75;17.75;;;15.00;99.90;;;;;;4885012;29;20057;-91
2021/06/01 01:53:21;;;;;;;35.00;17.83;;;13.60;99.90;;;;;;4884474;29;20060;-92
2021/06/01 01:55:52;;;;;;;35.78;17.15;;;13.60;99.90;;;;;;4885751;29;20059;-92
2021/06/01 01:58:36;;;;;;;37.10;17.65;;;13.50;99.90;;;;;;4887309;29;20048;-91
2021/06/01 02:01:10;;;;;;;35.58;18.58;;;13.50;99.90;;;;;;4912407;29;20052;-92
2021/06/01 02:03:40;;;;;;;32.55;17.50;;;13.50;99.90;;;;;;4895490;29;20056;-92
2021/06/01 02:06:09;;;;;;;33.65;15.43;;;13.50;99.90;;;;;;4845051;29;20053;-91
2021/06/01 02:08:42;;;;;;;38.45;17.70;;;13.40;99.90;;;;;;4880459;29;20457;-90
2021/06/01 02:11:19;;;;;;;35.22;16.98;;;13.40;99.90;;;;;;4876132;29;20078;-92
2021/06/01 02:14:05;;;;;;;46.35;18.73;;;13.30;99.90;;;;;;4871518;29;20519;-91
2021/06/01 02:16:41;;;;;;;34.70;17.20;;;14.90;99.90;;;;;;4864119;29;20056;-92
2021/06/01 02:19:16;;;;;;;37.83;18.27;;;14.00;99.90;;;;;;4847837;29;20053;-90
2021/06/01 02:25:10;;;;;;;38.15;18.25;;;13.20;99.90;;;;;;4895030;29;20116;-92
2021/06/01 02:28:18;;;;;;;35.70;17.65;;;13.40;99.90;;;;;;4914974;29;20063;-91
2021/06/01 02:30:54;;;;;;;39.17;16.75;;;13.20;99.90;;;;;;4892821;29;20052;-89
2021/06/01 02:33:31;;;;;;;37.38;20.27;;;13.20;99.90;;;;;;4918298;29;20048;-90
2021/06/01 02:36:14;;;;;;;36.03;19.58;;;13.10;99.90;;;;;;4912426;29;20051;-92
2021/06/01 02:38:49;;;;;;;36.45;18.52;;;13.10;99.90;;;;;;4898527;29;20530;-92
2021/06/01 02:41:26;;;;;;;33.67;18.65;;;13.00;99.90;;;;;;4917075;29;20128;-92
2021/06/01 02:44:10;;;;;;;33.28;18.63;;;13.00;99.90;;;;;;4876693;29;20055;-92
2021/06/01 02:47:01;;;;;;;35.28;18.25;;;13.00;99.90;;;;;;4875593;29;20057;-91
2021/06/01 02:49:40;;;;;;;39.03;18.50;;;12.90;99.90;;;;;;4912156;29;20056;-90
2021/06/01 02:52:15;;;;;;;31.00;17.17;;;12.90;99.90;;;;;;4891488;29;20052;-91
2021/06/01 02:54:54;;;;;;;33.00;17.45;;;12.90;99.90;;;;;;4911086;29;20427;-91
2021/06/01 02:57:33;;;;;;;34.63;16.85;;;12.90;99.90;;;;;;4892405;29;20063;-91
2021/06/01 03:00:09;;;;;;;33.83;18.30;;;12.90;99.90;;;;;;4885133;29;20052;-91
2021/06/01 03:02:48;;;;;;;34.30;17.27;;;11.30;99.90;;;;;;4887678;29;20416;-91
2021/06/01 03:05:20;;;;;;;34.38;17.90;;;12.60;99.90;;;;;;4902825;29;20055;-90
2021/06/01 03:07:58;;;;;;;32.38;18.23;;;12.70;99.90;;;;;;4912643;29;20063;-91
2021/06/01 03:10:27;;;;;;;40.20;19.80;;;13.00;99.90;;;;;;4887579;29;20499;-92
2021/06/01 03:13:01;;;;;;;43.58;18.10;;;12.80;99.90;;;;;;4901982;29;20078;-92
2021/06/01 03:15:38;;;;;;;33.35;16.88;;;12.70;99.90;;;;;;4897679;29;20064;-92
2021/06/01 03:18:09;;;;;;;33.22;16.17;;;12.70;99.90;;;;;;4882565;29;20056;-91
2021/06/01 03:20:42;;;;;;;32.17;16.27;;;12.60;99.90;;;;;;4882289;29;20457;-91
2021/06/01 03:23:29;;;;;;;31.60;15.82;;;12.60;99.90;;;;;;4885428;29;20049;-92
2021/06/01 03:26:02;;;;;;;31.20;17.08;;;12.60;99.90;;;;;;4896053;29;20079;-90
2021/06/01 03:28:35;;;;;;;34.38;17.83;;;12.60;99.90;;;;;;4912534;29;20056;-91
2021/06/01 03:31:30;;;;;;;27.95;15.70;;;12.60;99.90;;;;;;4908572;29;20063;-91
2021/06/01 03:34:05;;;;;;;31.98;17.98;;;12.60;99.90;;;;;;4898385;29;20055;-91
2021/06/01 03:36:37;;;;;;;38.65;17.20;;;12.50;99.90;;;;;;4882976;29;20059;-89
2021/06/01 03:39:08;;;;;;;38.45;18.08;;;12.50;99.90;;;;;;4882552;29;20052;-90
2021/06/01 03:41:39;;;;;;;31.33;17.17;;;12.50;99.90;;;;;;4920038;29;20062;-91
2021/06/01 03:44:11;;;;;;;29.42;16.55;;;12.50;99.90;;;;;;4888119;29;20052;-91
2021/06/01 03:46:55;;;;;;;34.42;16.33;;;12.50;99.90;;;;;;4925501;29;20051;-92
2021/06/01 03:49:42;;;;;;;36.47;16.85;;;12.50;99.90;;;;;;4913935;29;20551;-91
2021/06/01 03:52:11;;;;;;;35.35;17.58;;;12.40;99.90;;;;;;4893740;29;20052;-91
2021/06/01 03:54:46;;;;;;;35.72;18.45;;;12.40;99.90;;;;;;4900697;29;20055;-90
2021/06/01 03:57:17;;;;;;;34.80;17.67;;;12.30;99.90;;;;;;4905573;29;20059;-90
2021/06/01 03:59:46;;;;;;;32.63;15.20;;;12.40;99.90;;;;;;4885420;29;20046;-90
2021/06/01 04:02:15;;;;;;;30.48;16.85;;;13.80;99.90;;;;;;4882989;29;20064;-92
2021/06/01 04:04:44;;;;;;;29.00;15.80;;;12.40;99.90;;;;;;4864623;29;20075;-90
2021/06/01 04:07:17;;;;;;;29.25;16.42;;;12.20;99.90;;;;;;4880597;29;20443;-90
2021/06/01 04:09:46;;;;;;;30.73;16.92;;;12.30;99.90;;;;;;4893146;29;20052;-90
2021/06/01 04:12:18;;;;;;;36.67;17.80;;;12.30;99.90;;;;;;4887940;29;20066;-91
2021/06/01 04:14:46;;;;;;;32.97;16.67;;;12.30;99.90;;;;;;4885589;29;20052;-91
2021/06/01 04:17:28;;;;;;;38.78;17.60;;;12.40;99.90;;;;;;4906105;29;20063;-91
2021/06/01 04:19:57;;;;;;;35.10;17.63;;;12.20;99.90;;;;;;4898186;29;20064;-89
2021/06/01 04:22:39;;;;;;;39.80;19.02;;;12.30;99.90;;;;;;4869141;29;20071;-90
2021/06/01 04:25:20;;;;;;;35.47;16.63;;;12.30;99.90;;;;;;4911922;29;20051;-90
2021/06/01 04:27:49;;;;;;;33.13;18.33;;;12.30;99.90;;;;;;4895771;29;20063;-91
2021/06/01 04:30:21;;;;;;;32.20;17.83;;;12.50;99.90;;;;;;4898742;29;20059;-90
2021/06/01 04:32:51;;;;;;;40.20;17.58;;;12.30;99.90;;;;;;4899234;29;20051;-90
2021/06/01 04:35:23;;;;;;;36.20;17.73;;;12.30;99.90;;;;;;4895335;29;20045;-90
2021/06/01 04:37:54;;;;;;;37.17;19.15;;;12.30;99.90;;;;;;4904819;29;20052;-91
2021/06/01 04:40:24;;;;;;;37.42;18.40;;;12.30;99.90;;;;;;4911181;29;20058;-91
2021/06/01 04:42:55;;;;;;;40.70;18.85;;;12.30;99.90;;;;;;4922348;29;20052;-91
2021/06/01 04:45:37;;;;;;;41.78;19.23;;;12.30;99.90;;;;;;4884456;29;20066;-92
2021/06/01 04:48:21;;;;;;;36.80;18.25;;;12.10;99.90;;;;;;4878934;29;20048;-91
2021/06/01 04:50:52;;;;;;;31.88;18.63;;;12.30;99.90;;;;;;4888267;29;20037;-91
2021/06/01 04:53:35;;;;;;;43.58;17.80;;;12.50;99.90;;;;;;4877874;29;20044;-90
2021/06/01 04:56:22;;;;;;;36.38;19.38;;;12.50;99.90;;;;;;4919071;29;20058;-91
2021/06/01 04:59:07;;;;;;;44.72;19.05;;;12.50;99.90;;;;;;4905405;29;20051;-92
2021/06/01 05:02:10;;;;;;;40.75;19.02;;;12.50;99.90;;;;;;4903332;29;20062;-91
2021/06/01 05:05:14;;;;;;;33.97;19.50;;;12.60;99.90;;;;;;4923754;29;20052;-93
2021/06/01 05:07:48;;;;;;;39.38;19.20;;;12.60;99.90;;;;;;4899118;29;20065;-92
2021/06/01 05:10:43;;;;;;;40.60;21.35;;;12.70;99.90;;;;;;4897031;29;20056;-91
2021/06/01 05:13:32;;;;;;;49.53;21.38;;;12.70;99.90;;;;;;4896951;29;20051;-91
2021/06/01 05:16:17;;;;;;;46.22;21.98;;;12.70;99.90;;;;;;4897701;29;20047;-91
2021/06/01 05:18:53;;;;;;;36.60;21.48;;;12.80;99.90;;;;;;4887172;29;20067;-90
2021/06/01 05:21:29;;;;;;;42.88;21.33;;;12.80;99.90;;;;;;4925037;29;20052;-90
2021/06/01 05:23:59;;;;;;;37.95;21.23;;;12.90;99.90;;;;;;4874366;29;20066;-90
2021/06/01 05:26:31;;;;;;;42.08;22.48;;;12.90;99.90;;;;;;4901198;29;20048;-92
2021/06/01 05:29:22;;;;;;;46.47;22.67;;;12.90;99.90;;;;;;4887599;29;20050;-91
2021/06/01 05:34:38;;;;;;;39.70;22.55;;;13.00;99.90;;;;;;4899042;29;20056;-90
2021/06/01 05:37:09;;;;;;;41.90;23.13;;;13.00;99.90;;;;;;4915604;29;20063;-92
2021/06/01 05:39:37;;;;;;;41.13;23.45;;;13.10;99.90;;;;;;4896190;29;20048;-90
2021/06/01 05:42:20;;;;;;;57.15;23.88;;;13.20;99.90;;;;;;4895861;29;20049;-92
2021/06/01 05:45:04;;;;;;;45.85;21.27;;;13.20;99.90;;;;;;4890912;29;20048;-91
2021/06/01 05:47:34;;;;;;;46.90;24.70;;;13.30;99.90;;;;;;4885010;29;20063;-90
2021/06/01 05:50:04;;;;;;;;;;;13.40;99.90;;;;;;4918627;29;20403;-91
2021/06/01 05:52:35;;;;;;;45.53;25.60;;;13.10;99.90;;;;;;4887670;29;19923;-90
2021/06/01 05:55:18;;;;;;;44.60;24.80;;;13.40;99.90;;;;;;4891232;29;20534;-90
2021/06/01 05:57:48;;;;;;;41.50;23.67;;;13.30;99.90;;;;;;4883700;29;20062;-91
2021/06/01 06:00:22;;;;;;;50.85;26.23;;;13.50;99.90;;;;;;4898075;29;20448;-91
2021/06/01 06:03:02;;;;;;;46.38;24.92;;;13.60;99.90;;;;;;4912596;29;20067;-90
2021/06/01 06:05:41;;;;;;;48.13;23.27;;;13.60;99.90;;;;;;4899790;29;20063;-91
2021/06/01 06:08:14;;;;;;;51.92;24.90;;;13.70;99.90;;;;;;4913504;29;20047;-91
2021/06/01 06:10:48;;;;;;;55.78;24.13;;;13.80;99.90;;;;;;4919008;29;20062;-92
2021/06/01 06:13:32;;;;;;;45.58;23.10;;;13.80;99.90;;;;;;4929753;29;20067;-91
2021/06/01 06:16:03;;;;;;;56.77;25.63;;;13.90;99.90;;;;;;4904842;29;20051;-92
2021/06/01 06:18:45;;;;;;;43.88;23.20;;;14.00;99.90;;;;;;4903258;29;20063;-91
2021/06/01 06:21:33;;;;;;;50.38;25.23;;;14.00;99.90;;;;;;4907276;29;20051;-90
2021/06/01 06:24:08;;;;;;;43.65;24.13;;;14.10;99.90;;;;;;4871999;29;20138;-92
2021/06/01 06:26:52;;;;;;;49.05;24.90;;;14.10;99.90;;;;;;4873977;29;20050;-92
2021/06/01 06:29:21;;;;;;;42.95;24.13;;;14.20;99.90;;;;;;4904038;29;20043;-91
2021/06/01 06:31:51;;;;;;;47.88;21.83;;;14.30;99.90;;;;;;4884738;29;20056;-92
2021/06/01 06:34:21;;;;;;;50.92;25.45;;;14.40;99.90;;;;;;4889751;29;20044;-91
2021/06/01 06:36:49;;;;;;;45.15;25.63;;;14.40;99.90;;;;;;4905095;29;20064;-91
2021/06/01 06:39:26;;;;;;;45.47;24.55;;;14.50;99.90;;;;;;4895878;29;20051;-91
2021/06/01 06:41:54;;;;;;;46.67;26.02;;;14.60;99.90;;;;;;4895532;29;20056;-91
2021/06/01 06:44:24;;;;;;;49.38;23.60;;;14.70;99.90;;;;;;4907508;29;20519;-90
2021/06/01 06:47:18;;;;;;;50.78;23.90;;;13.80;99.90;;;;;;4889925;29;20514;-91
2021/06/01 06:49:48;;;;;;;44.97;23.67;;;14.90;99.90;;;;;;4915910;29;20399;-92
2021/06/01 06:52:16;;;;;;;51.60;22.90;;;15.00;99.90;;;;;;4910265;29;20059;-92
2021/06/01 06:54:46;;;;;;;50.30;24.90;;;15.00;99.90;;;;;;4895595;29;20056;-91
2021/06/01 06:57:14;;;;;;;44.25;23.30;;;15.20;99.90;;;;;;4894983;29;20067;-92
2021/06/01 06:59:49;;;;;;;52.08;23.15;;;15.30;99.90;;;;;;4922508;29;20052;-91
2021/06/01 07:02:20;;;;;;;46.35;23.13;;;15.40;99.90;;;;;;4902847;29;20051;-92
2021/06/01 07:04:48;;;;;;;41.13;23.42;;;15.50;99.90;;;;;;4881724;29;20063;-92
2021/06/01 07:07:18;;;;;;;47.65;22.52;;;15.60;99.90;;;;;;4894427;29;20058;-92
2021/06/01 07:09:51;;;;;;;44.50;22.25;;;15.70;99.90;;;;;;4879969;29;20056;-92
2021/06/01 07:12:20;;;;;;;42.65;21.25;;;15.80;99.90;;;;;;4891929;29;20057;-92
2021/06/01 07:15:10;;;;;;;42.25;22.60;;;15.90;99.90;;;;;;4890209;29;20056;-93
2021/06/01 07:17:46;;;;;;;53.28;22.20;;;16.00;99.90;;;;;;4887755;29;20147;-93
2021/06/01 07:20:16;;;;;;;45.92;23.38;;;16.10;99.90;;;;;;4858137;29;20044;-93
2021/06/01 07:22:45;;;;;;;52.45;24.00;;;16.20;99.90;;;;;;4887203;29;20052;-92
2021/06/01 07:25:16;;;;;;;43.47;23.27;;;16.60;99.90;;;;;;4873885;29;20067;-92
2021/06/01 07:27:45;;;;;;;42.25;23.13;;;16.30;99.90;;;;;;4872585;29;20059;-92
2021/06/01 07:30:14;;;;;;;41.05;25.48;;;16.40;99.90;;;;;;4886072;29;20100;-93
2021/06/01 07:32:45;;;;;;;43.42;21.85;;;16.50;99.90;;;;;;4902802;29;20566;-93
2021/06/01 07:35:16;;;;;;;47.40;21.95;;;16.60;99.90;;;;;;4886003;29;20056;-93
2021/06/01 07:37:46;;;;;;;42.83;22.40;;;16.70;99.90;;;;;;4886424;29;20053;-91
2021/06/01 07:40:28;;;;;;;57.28;22.45;;;16.80;99.90;;;;;;4883854;29;20055;-92
2021/06/01 07:43:10;;;;;;;53.15;24.13;;;16.90;99.90;;;;;;4877837;29;20048;-92
2021/06/01 07:45:40;;;;;;;46.00;21.40;;;17.00;99.90;;;;;;4882752;29;20063;-93
2021/06/01 07:48:08;;;;;;;50.28;23.17;;;17.10;99.90;;;;;;4860463;29;20063;-93
2021/06/01 07:50:38;;;;;;;42.00;23.33;;;17.10;99.90;;;;;;4905464;29;20064;-93
2021/06/01 07:53:10;;;;;;;44.53;21.40;;;17.30;99.90;;;;;;4908750;29;20052;-93
2021/06/01 07:55:39;;;;;;;43.30;23.15;;;17.80;99.90;;;;;;4886387;29;20055;-93
2021/06/01 07:58:07;;;;;;;44.33;21.40;;;17.40;99.90;;;;;;4876061;29;20060;-93
2021/06/01 08:00:38;;;;;;;45.20;20.27;;;17.50;99.90;;;;;;4898851;29;20440;-93
2021/06/01 08:03:07;;;;;;;35.60;18.60;;;18.60;99.90;;;;;;4901336;29;20562;-93
2021/06/01 08:05:35;;;;;;;36.90;19.45;;;17.70;99.90;;;;;;4890059;29;20059;-93
2021/06/01 08:08:05;;;;;;;45.43;19.27;;;17.80;99.90;;;;;;4886204;29;20052;-93
2021/06/01 08:10:35;;;;;;;37.25;20.58;;;17.90;99.90;;;;;;4898266;29;20048;-93
2021/06/01 08:13:03;;;;;;;44.17;19.42;;;18.00;99.90;;;;;;4888441;29;20051;-94
2021/06/01 08:15:31;;;;;;;44.22;19.30;;;18.10;99.90;;;;;;4889764;29;20056;-93
2021/06/01 08:18:04;;;;;;;38.25;19.08;;;18.20;99.90;;;;;;4888536;29;20056;-93
2021/06/01 08:20:35;;;;;;;32.40;18.63;;;18.30;99.90;;;;;;4900104;29;20413;-92
2021/06/01 08:23:04;;;;;;;;;;;18.40;99.90;;;;;;4900037;29;20310;-93
2021/06/01 08:25:34;;;;;;;35.88;19.42;;;18.50;99.90;;;;;;4888103;29;19927;-93
2021/06/01 08:28:02;;;;;;;38.30;17.80;;;18.60;99.90;;;;;;4899334;29;20058;-94
2021/06/01 08:30:31;;;;;;;38.55;17.67;;;18.70;99.90;;;;;;4894205;29;20071;-94
2021/06/01 08:33:02;;;;;;;39.13;17.27;;;18.80;99.90;;;;;;4881887;29;20056;-94
2021/06/01 08:35:32;;;;;;;36.50;20.67;;;18.90;99.90;;;;;;4878974;29;20048;-93
2021/06/01 08:38:04;;;;;;;35.20;16.65;;;19.00;99.90;;;;;;4885139;29;20048;-94
2021/06/01 08:40:33;;;;;;;34.75;17.77;;;19.10;99.90;;;;;;4856333;29;20067;-93
2021/06/01 08:43:01;;;;;;;39.88;18.88;;;19.20;99.90;;;;;;4888424;29;20048;-94
2021/06/01 08:45:33;;;;;;;38.60;20.95;;;19.30;99.90;;;;;;4912473;29;20078;-93
2021/06/01 08:48:17;;;;;;;34.00;17.30;;;19.40;99.90;;;;;;4897977;29;20044;-93
2021/06/01 08:50:55;;;;;;;39.13;17.33;;;19.50;99.90;;;;;;4896036;29;20435;-94
2021/06/01 08:53:23;;;;;;;35.15;17.42;;;19.50;99.90;;;;;;4889542;29;20058;-94
2021/06/01 08:55:51;;;;;;;34.65;16.80;;;19.60;99.90;;;;;;4880829;29;20407;-95
2021/06/01 08:58:21;;;;;;;36.72;15.50;;;19.70;99.90;;;;;;4905393;29;20082;-94
2021/06/01 09:00:50;;;;;;;34.30;16.10;;;19.80;99.90;;;;;;4893103;29;20227;-93
2021/06/01 09:03:25;;;;;;;34.17;16.23;;;19.90;99.90;;;;;;4885444;29;20079;-94
2021/06/01 09:06:35;;;;;;;35.97;16.88;;;20.00;99.90;;;;;;4862397;29;20060;-94
2021/06/01 09:12:29;;;;;;;34.22;14.95;;;20.30;99.90;;;;;;4872945;29;20785;-95
2021/06/01 09:23:07;;;;;;;31.83;14.93;;;20.60;99.90;;;;;;4889145;29;20052;-94
2021/06/01 09:25:42;;;;;;;26.50;13.65;;;20.70;99.90;;;;;;4872696;29;20048;-93
2021/06/01 09:28:15;;;;;;;35.40;14.02;;;20.80;99.90;;;;;;4869279;29;20047;-94
2021/06/01 09:30:45;;;;;;;28.00;13.38;;;21.00;99.90;;;;;;4891267;29;20052;-94
2021/06/01 09:33:16;;;;;;;;;;;21.00;99.90;;;;;;4896492;29;20051;-93
2021/06/01 09:35:59;;;;;;;26.33;12.05;;;21.10;99.90;;;;;;4880416;29;19926;-93
2021/06/01 09:38:35;;;;;;;28.02;13.65;;;21.20;99.90;;;;;;4895326;29;20523;-95
2021/06/01 09:41:12;;;;;;;31.73;13.23;;;20.70;99.90;;;;;;4895887;29;20299;-94
2021/06/01 09:44:03;;;;;;;21.58;12.10;;;21.40;99.90;;;;;;4882244;29;20048;-94
2021/06/01 09:46:31;;;;;;;;;;;21.50;99.90;;;;;;4889958;29;20483;-93
2021/06/01 09:49:12;;;;;;;29.65;11.55;;;21.60;99.90;;;;;;4875459;29;19930;-94
2021/06/01 09:51:44;;;;;;;26.98;12.43;;;21.70;99.90;;;;;;4862856;29;20052;-94
2021/06/01 09:54:58;;;;;;;24.90;12.00;;;21.80;99.90;;;;;;4892123;29;20060;-93
2021/06/01 09:57:27;;;;;;;29.58;14.43;;;22.00;99.90;;;;;;4884259;29;20481;-93
2021/06/01 10:00:19;;;;;;;27.10;11.68;;;22.10;99.90;;;;;;4898802;29;20055;-93
2021/06/01 10:02:56;;;;;;;27.30;13.27;;;22.20;99.90;;;;;;4874127;29;20056;-94
2021/06/01 10:05:44;;;;;;;27.20;12.15;;;22.30;99.90;;;;;;4885336;29;20052;-93
2021/06/01 10:08:18;;;;;;;26.45;11.13;;;22.40;99.90;;;;;;4888468;29;20056;-93
2021/06/01 10:10:57;;;;;;;35.75;11.88;;;22.50;99.90;;;;;;4877704;29;20067;-93
2021/06/01 10:13:29;;;;;;;25.08;11.45;;;22.60;99.90;;;;;;4879151;29;20075;-93
2021/06/01 10:16:02;;;;;;;24.38;10.85;;;22.70;99.90;;;;;;4888392;29;20055;-92
2021/06/01 10:18:30;;;;;;;;;;;22.80;99.90;;;;;;4891835;29;20613;-92
2021/06/01 10:21:00;;;;;;;27.55;11.98;;;22.90;99.90;;;;;;4876484;29;19930;-93
2021/06/01 10:23:42;;;;;;;22.43;10.90;;;23.00;99.90;;;;;;4884409;29;20052;-93
2021/06/01 10:26:13;;;;;;;23.25;10.18;;;23.10;99.90;;;;;;4880795;29;20056;-92
2021/06/01 10:28:47;;;;;;;21.73;10.25;;;23.20;99.90;;;;;;4871390;29;20118;-92
2021/06/01 10:31:31;;;;;;;23.02;9.93;;;23.20;99.90;;;;;;4864174;29;20056;-92
2021/06/01 10:34:03;;;;;;;24.63;11.43;;;23.30;99.90;;;;;;4896470;29;20476;-92
2021/06/01 10:50:47;;;;;;;10.85;4.05;;;24.10;94.50;;;;;;4909203;29;20064;-90
2021/06/01 10:53:20;;;;;;;9.95;3.70;;;24.30;91.00;;;;;;4883005;29;20054;-90
2021/06/01 10:56:06;;;;;;;13.93;3.67;;;24.40;91.80;;;;;;4887064;29;20416;-90
2021/06/01 11:04:21;;;;;;;8.65;3.30;;;24.80;87.70;;;;;;4918774;29;20475;-89
2021/06/01 11:09:42;;;;;;;6.30;3.25;;;24.90;82.40;;;;;;4878580;29;20064;-90
2021/06/01 11:12:15;;;;;;;9.07;4.00;;;25.00;78.70;;;;;;4880950;29;20048;-90
2021/06/01 11:14:46;;;;;;;6.32;3.28;;;25.10;78.30;;;;;;4896176;29;20059;-91
2021/06/01 11:17:15;;;;;;;8.82;3.33;;;25.10;77.50;;;;;;4891926;29;20066;-90
2021/06/01 11:19:57;;;;;;;7.68;3.47;;;25.10;76.10;;;;;;4892624;29;20052;-90
2021/06/01 11:22:54;;;;;;;8.20;3.75;;;25.20;76.00;;;;;;4894436;29;20059;-89
2021/06/01 11:33:41;;;;;;;9.15;3.40;;;25.40;74.60;;;;;;4896145;29;20044;-90
2021/06/01 11:36:16;;;;;;;11.18;4.10;;;25.60;73.90;;;;;;4877971;29;20056;-90
2021/06/01 11:38:58;;;;;;;8.02;3.22;;;25.70;73.70;;;;;;4900494;29;20052;-89
2021/06/01 11:44:28;;;;;;;6.55;3.35;;;25.80;69.10;;;;;;4900254;29;20515;-92
2021/06/01 11:47:27;;;;;;;9.80;3.47;;;25.90;67.60;;;;;;4872315;29;20075;-92
2021/06/01 11:53:15;;;;;;;9.60;3.00;;;26.10;64.20;;;;;;4904563;29;20477;-91
2021/06/01 11:55:45;;;;;;;7.38;3.50;;;26.20;65.00;;;;;;4867918;29;20060;-90
2021/06/01 12:04:13;;;;;;;5.07;2.53;;;26.50;62.80;;;;;;4890621;29;20513;-91
2021/06/01 12:18:24;;;;;;;8.70;3.30;;;26.60;60.50;;;;;;4910176;29;20062;-90
2021/06/01 12:20:52;;;;;;;8.43;2.10;;;26.70;59.10;;;;;;4879078;29;20067;-90
2021/06/01 12:23:46;;;;;;;6.82;2.40;;;26.70;59.10;;;;;;4872404;29;20489;-90
2021/06/01 12:32:01;;;;;;;4.60;1.95;;;26.80;57.60;;;;;;4896362;29;20060;-90
2021/06/01 12:43:57;;;;;;;3.20;1.73;;;26.80;54.80;;;;;;4894848;29;20052;-92
2021/06/01 13:21:03;;;;;;;17.85;3.42;;;27.90;53.80;;;;;;4904957;29;20056;-89
2021/06/01 13:46:21;;;;;;;10.70;2.57;;;28.40;51.80;;;;;;4892497;29;20063;-92
2021/06/01 13:48:57;;;;;;;12.57;2.42;;;28.70;50.90;;;;;;4871495;29;20059;-90
2021/06/01 13:56:48;;;;;;;4.70;2.27;;;28.80;50.40;;;;;;4839883;29;20059;-91
2021/06/01 13:59:31;;;;;;;6.78;2.92;;;28.80;50.60;;;;;;4900526;29;20055;-92
2021/06/01 14:21:22;;;;;;;16.38;3.38;;;29.00;49.80;;;;;;4932759;29;20507;-92
2021/06/01 15:49:49;;;;;;;4.63;2.33;;;31.50;43.30;;;;;;4918136;29;20060;-92
2021/06/01 15:55:28;;;;;;;7.25;3.55;;;31.40;43.40;;;;;;4887130;29;20071;-91
2021/06/01 16:23:41;;;;;;;7.95;3.55;;;31.20;42.70;;;;;;4902510;29;20064;-92
2021/06/01 16:43:49;;;;;;;9.40;5.22;;;31.60;41.60;;;;;;4916571;29;20056;-93
2021/06/01 17:05:58;;;;;;;11.07;4.10;;;31.70;41.40;;;;;;4889799;29;20056;-92
2021/06/01 17:08:48;;;;;;;19.77;5.10;;;31.80;41.30;;;;;;4874153;29;20056;-93
2021/06/01 17:11:18;;;;;;;11.05;6.55;;;31.70;41.00;;;;;;4879699;29;20057;-94
2021/06/01 17:13:58;;;;;;;11.43;5.10;;;31.80;41.20;;;;;;4908613;29;20040;-93
2021/06/01 17:16:42;;;;;;;8.90;4.80;;;31.70;41.00;;;;;;4902480;29;20070;-92
2021/06/01 17:36:00;;;;;;;10.35;3.60;;;32.20;40.60;;;;;;4899040;29;20075;-91
2021/06/01 17:38:30;;;;;;;7.03;2.97;;;32.20;40.40;;;;;;4912667;29;20089;-91
2021/06/01 17:41:01;;;;;;;7.47;3.63;;;32.00;40.60;;;;;;4886149;29;20063;-92
2021/06/01 17:43:32;;;;;;;5.13;2.63;;;31.90;40.40;;;;;;4895391;29;20051;-93
2021/06/01 17:46:05;;;;;;;9.35;4.32;;;31.60;40.60;;;;;;4893950;29;20055;-92
2021/06/01 17:48:40;;;;;;;12.63;4.35;;;31.60;40.90;;;;;;4882540;29;20323;-89
2021/06/01 17:51:08;;;;;;;8.50;3.40;;;31.50;40.80;;;;;;4894839;29;20055;-91
2021/06/01 17:53:47;;;;;;;13.43;3.47;;;31.30;41.00;;;;;;4871028;29;20057;-94
2021/06/01 17:56:23;;;;;;;11.10;4.10;;;31.00;40.70;;;;;;4907113;29;20068;-92
2021/06/01 17:58:57;;;;;;;10.73;4.80;;;30.80;41.10;;;;;;4918499;29;20058;-92
2021/06/01 18:01:31;;;;;;;11.93;4.13;;;30.50;41.60;;;;;;4894939;29;20047;-93
2021/06/01 18:04:01;;;;;;;13.20;4.40;;;30.70;42.00;;;;;;4891834;29;20486;-93
2021/06/01 18:06:59;;;;;;;12.50;5.32;;;30.30;41.90;;;;;;4878852;29;20052;-92
2021/06/01 18:51:33;;;;;;;3.90;2.67;;;25.40;46.90;;;;;;4897036;29;20067;-92
2021/06/01 19:06:54;;;;;;;8.80;2.97;;;23.60;50.30;;;;;;4906922;29;20052;-93
2021/06/01 19:51:46;;;;;;;9.48;4.40;;;21.10;57.90;;;;;;4900192;29;20059;-95
2021/06/01 19:55:12;;;;;;;14.73;3.75;;;20.90;59.20;;;;;;4852126;29;20051;-94
2021/06/01 19:57:53;;;;;;;8.73;3.25;;;20.80;59.20;;;;;;4885281;29;20059;-95
2021/06/01 20:00:27;;;;;;;11.85;4.20;;;21.50;59.10;;;;;;4872180;29;20053;-96
2021/06/01 20:03:03;;;;;;;15.05;4.13;;;20.90;59.20;;;;;;4864496;29;20044;-95
2021/06/01 20:05:46;;;;;;;7.15;3.47;;;20.40;59.40;;;;;;4880050;29;20521;-94
2021/06/01 20:08:28;;;;;;;7.55;3.50;;;20.30;60.00;;;;;;4878144;29;20055;-96
2021/06/01 20:11:30;;;;;;;7.78;3.58;;;20.20;61.30;;;;;;4882061;29;20059;-94
2021/06/01 20:14:08;;;;;;;9.02;4.45;;;20.50;61.10;;;;;;4837048;29;20073;-94
2021/06/01 20:16:49;;;;;;;11.85;4.63;;;20.00;60.50;;;;;;4862174;29;20067;-94
2021/06/01 20:19:46;;;;;;;10.63;4.22;;;19.90;61.00;;;;;;4864765;29;20481;-94
2021/06/01 20:23:01;;;;;;;11.38;5.00;;;19.90;61.30;;;;;;4868789;29;20056;-93
2021/06/01 20:25:58;;;;;;;9.07;3.92;;;21.20;63.90;;;;;;4881764;29;20063;-94
2021/06/01 20:29:16;;;;;;;9.95;4.78;;;19.80;62.70;;;;;;4885127;29;20059;-95
2021/06/01 20:31:59;;;;;;;23.35;4.82;;;19.50;62.20;;;;;;4851106;29;20037;-94
2021/06/01 20:35:16;;;;;;;13.68;4.75;;;19.70;62.80;;;;;;4905542;29;20217;-95
2021/06/01 20:38:24;;;;;;;11.02;5.00;;;19.50;64.40;;;;;;4894563;29;20057;-94